Mineola, Missouri
Current Conditions -  °F | °C
As of 7:55 AM on Monday 24 Nov 2014 (Local Time) from KFYG Reporting Station
Overcast Overcast  
Wind Chill: 29°   Ceiling: 2800
Heat Index: 37°   Visibility: 10mi
Dew Point: 28°   Wind: 14mph
Humidity: 70%   Direction: 270°W
Pressure: 29.6"   Gusts: 25mph
Location:  39.0022°N, 91.5066°W
Report Text: KFYG 241355Z AUTO 27012G22KT 10SM OVC028 03/M02 A2960 RMK AO2
Loading
Personal Weather Stations






























Interactive Weather Map New forecast layout! Learn more

10-Day Weather Forecast

Advertisements
Track Severe Weather on mobile